ANACAPA ISLAND CA US current weather conditions

sailwx.info

Wind from 301 at 6 knots gusting 13

Air temperature 19.4° C
Dewpoint 14.9° C

Last reported at 2014-Oct-25 09:23 UTC.
Time now 2014-Oct-25 10:16 UTC

Location: N 34°01' W 119°22'.
View on Google Maps.

See reports from other nearby stations

  
Tides and Currents Weather Stations Pressure Air Temp Water Temp Dewpoint Dewpoint Depression Visibility Wind Speed Wind Dir Waves Ship Positions
date/time (UTC)wind fromknots sea level pressurealtimeterstation pressurevisibilityair tempwater tempwave heightnotes
2014-Oct-25 09:23 301 6 gusting 13 19.4
2014-Oct-25 08:23 319 10 gusting 14 18.9
2014-Oct-25 07:23 313 10 gusting 20 19.4
2014-Oct-25 06:23 301 14 gusting 19 18.9
2014-Oct-25 05:23 301 13 gusting 18 18.9
2014-Oct-25 04:23 305 13 gusting 16 18.9
2014-Oct-25 03:23 305 11 gusting 13 20.0
2014-Oct-25 02:23 306 9 gusting 12 20.0
2014-Oct-25 01:23 315 5 gusting 6 20.0
2014-Oct-25 00:23 246 2 gusting 6 21.1
2014-Oct-24 23:23 055 2 gusting 7 21.7
2014-Oct-24 22:23 015 0 gusting 5 25.6
2014-Oct-24 21:23 244 1 gusting 3 27.2
2014-Oct-24 20:23 018 0 gusting 4 28.9
2014-Oct-24 19:23 326 0 gusting 5 26.7
2014-Oct-24 18:23 036 0 gusting 6 28.3
2014-Oct-24 17:23 050 4 gusting 9 23.9
2014-Oct-24 16:23 031 7 gusting 11 23.3
2014-Oct-24 15:23 023 6 gusting 7 21.7
2014-Oct-24 13:23 043 3 gusting 4 17.8
2014-Oct-24 12:23 009 2 gusting 5 18.9
2014-Oct-24 11:23 046 3 gusting 5 18.3
2014-Oct-24 10:23 028 4 gusting 5 18.9
2014-Oct-24 09:23 015 2 gusting 4 18.9
2014-Oct-24 08:23 348 2 gusting 3 19.4
2014-Oct-24 07:23 307 2 gusting 3 19.4
2014-Oct-24 06:23 298 2 gusting 5 20.6
2014-Oct-24 05:23 323 4 gusting 4 20.6
2014-Oct-24 04:23
2014-Oct-24 03:23 343 2 gusting 3 20.0
2014-Oct-24 02:23 342 1 gusting 5 21.1
2014-Oct-24 01:23 306 1 gusting 14 20.6
2014-Oct-24 00:23 295 13 gusting 17 21.1
2014-Oct-23 23:23 302 14 gusting 17 21.7
2014-Oct-23 22:23 293 4 gusting 7 21.7
2014-Oct-23 21:23 294 4 gusting 6 23.3
2014-Oct-23 20:23 298 4 gusting 5 22.2
2014-Oct-23 19:23 325 3 gusting 4 22.2
2014-Oct-23 18:23 331 3 gusting 5 22.8
2014-Oct-23 17:23 019 2 gusting 4 27.2
2014-Oct-23 16:23 029 2 gusting 5 25.0
2014-Oct-23 15:23 036 5 gusting 6 21.1
2014-Oct-23 14:23 051 4 gusting 6 20.0
2014-Oct-23 13:23 126 6 gusting 8 20.6
2014-Oct-23 12:23 081 7 gusting 8 20.0
2014-Oct-23 11:23 072 6 gusting 9 18.9
2014-Oct-23 10:23 079 5 gusting 6 19.4